NPT182 ESMS-EGBB
Flight info
| Callsign | NPT182 |
|---|---|
| Flight time | 1h 47m |
| Altitude | 38000 |
| Route | MALIV M611 LANGO P999 ALS N872 PAM L980 IDRID M40 SABER L980 LAM/N0384F220 L10 BUZAD |
| Aircraft | B738/M-SDE2E3FGHIRWXY/LB1 |
Departure
| Time | 2026-05-07 16:41 |
|---|---|
| Airport | Malmö Sturup Airport (ESMS) |
Arrival
| Time | 2026-05-07 18:28 |
|---|---|
| Airport | Birmingham Airport (EGBB) |
| Time | Latitude | Longitude | Altitude | Speed | Heading |
|---|---|---|---|---|---|
| 2026-05-07 16:10 | 55.53871 | 13.36999 | 230 ft | 0 kts | 173° |
| 2026-05-07 16:29 | 55.53880 | 13.36997 | 230 ft | 4 kts | 171° |
| 2026-05-07 16:29 | 55.53905 | 13.36988 | 231 ft | 4 kts | 164° |
| 2026-05-07 16:30 | 55.53927 | 13.36973 | 232 ft | 3 kts | 147° |
| 2026-05-07 16:30 | 55.53939 | 13.36953 | 231 ft | 2 kts | 118° |
| 2026-05-07 16:30 | 55.53945 | 13.36925 | 233 ft | 2 kts | 95° |
| 2026-05-07 16:30 | 55.53945 | 13.36900 | 232 ft | 2 kts | 86° |
| 2026-05-07 16:31 | 55.53944 | 13.36881 | 233 ft | 2 kts | 84° |
| 2026-05-07 16:31 | 55.53944 | 13.36869 | 233 ft | 0 kts | 84° |
| 2026-05-07 16:36 | 55.53946 | 13.36913 | 233 ft | 6 kts | 84° |
| 2026-05-07 16:36 | 55.53953 | 13.36996 | 232 ft | 7 kts | 78° |
| 2026-05-07 16:36 | 55.53959 | 13.37079 | 230 ft | 7 kts | 86° |
| 2026-05-07 16:36 | 55.53962 | 13.37161 | 230 ft | 7 kts | 85° |
| 2026-05-07 16:37 | 55.53979 | 13.37235 | 230 ft | 7 kts | 46° |
| 2026-05-07 16:37 | 55.54022 | 13.37250 | 231 ft | 7 kts | 348° |
| 2026-05-07 16:37 | 55.54075 | 13.37233 | 232 ft | 9 kts | 353° |
| 2026-05-07 16:37 | 55.54162 | 13.37215 | 231 ft | 16 kts | 353° |
| 2026-05-07 16:38 | 55.54297 | 13.37188 | 230 ft | 23 kts | 354° |
| 2026-05-07 16:38 | 55.54476 | 13.37150 | 230 ft | 28 kts | 352° |
| 2026-05-07 16:38 | 55.54644 | 13.37149 | 230 ft | 22 kts | 17° |
| 2026-05-07 16:38 | 55.54766 | 13.37242 | 232 ft | 15 kts | 31° |
| 2026-05-07 16:39 | 55.54770 | 13.37381 | 229 ft | 14 kts | 158° |
| 2026-05-07 16:39 | 55.54668 | 13.37406 | 229 ft | 17 kts | 173° |
| 2026-05-07 16:39 | 55.54490 | 13.37443 | 232 ft | 32 kts | 173° |
| 2026-05-07 16:39 | 55.54115 | 13.37518 | 240 ft | 75 kts | 174° |
| 2026-05-07 16:40 | 55.53467 | 13.37651 | 237 ft | 111 kts | 174° |
| 2026-05-07 16:40 | 55.52607 | 13.37807 | 249 ft | 136 kts | 177° |
| 2026-05-07 16:40 | 55.51639 | 13.37992 | 389 ft | 145 kts | 178° |
| 2026-05-07 16:40 | 55.50614 | 13.38113 | 516 ft | 156 kts | 183° |
| 2026-05-07 16:41 | 55.49507 | 13.38122 | 805 ft | 157 kts | 178° |
| 2026-05-07 16:41 | 55.48354 | 13.38094 | 876 ft | 175 kts | 183° |
| 2026-05-07 16:41 | 55.47143 | 13.37926 | 1339 ft | 169 kts | 181° |
| 2026-05-07 16:41 | 55.45986 | 13.37577 | 1627 ft | 174 kts | 206° |
| 2026-05-07 16:42 | 55.45016 | 13.36256 | 1907 ft | 191 kts | 214° |
| 2026-05-07 16:42 | 55.43838 | 13.34794 | 2275 ft | 223 kts | 211° |
| 2026-05-07 16:42 | 55.42472 | 13.33227 | 2783 ft | 240 kts | 210° |
| 2026-05-07 16:42 | 55.41043 | 13.31610 | 3490 ft | 251 kts | 211° |
| 2026-05-07 16:43 | 55.39503 | 13.29873 | 4031 ft | 272 kts | 210° |
| 2026-05-07 16:43 | 55.37912 | 13.28076 | 5124 ft | 273 kts | 211° |
| 2026-05-07 16:43 | 55.36307 | 13.26259 | 6111 ft | 277 kts | 212° |
| 2026-05-07 16:43 | 55.34662 | 13.24396 | 6981 ft | 285 kts | 213° |
| 2026-05-07 16:44 | 55.33009 | 13.22522 | 8051 ft | 283 kts | 213° |
| 2026-05-07 16:44 | 55.31627 | 13.20959 | 8824 ft | 287 kts | 213° |
| 2026-05-07 16:44 | 55.29943 | 13.19056 | 9854 ft | 287 kts | 213° |
| 2026-05-07 16:44 | 55.28269 | 13.17165 | 10619 ft | 297 kts | 213° |
| 2026-05-07 16:45 | 55.26453 | 13.15113 | 10863 ft | 324 kts | 213° |
| 2026-05-07 16:45 | 55.24487 | 13.12896 | 11193 ft | 345 kts | 214° |
| 2026-05-07 16:45 | 55.22444 | 13.10595 | 11941 ft | 351 kts | 214° |
| 2026-05-07 16:45 | 55.20383 | 13.08283 | 12841 ft | 353 kts | 214° |
| 2026-05-07 16:46 | 55.18321 | 13.05893 | 13728 ft | 355 kts | 219° |
| 2026-05-07 16:46 | 55.16554 | 13.02885 | 14477 ft | 357 kts | 232° |
| 2026-05-07 16:46 | 55.15174 | 12.99283 | 15256 ft | 357 kts | 244° |
| 2026-05-07 16:46 | 55.14169 | 12.95304 | 16027 ft | 359 kts | 248° |
| 2026-05-07 16:47 | 55.13221 | 12.91233 | 16721 ft | 364 kts | 248° |
| 2026-05-07 16:47 | 55.12589 | 12.88514 | 17261 ft | 365 kts | 248° |
| 2026-05-07 16:47 | 55.11618 | 12.84407 | 17991 ft | 369 kts | 248° |
| 2026-05-07 16:47 | 55.10283 | 12.78887 | 18837 ft | 374 kts | 247° |
| 2026-05-07 16:48 | 55.09593 | 12.76063 | 19259 ft | 376 kts | 247° |
| 2026-05-07 16:48 | 55.08563 | 12.71853 | 19912 ft | 378 kts | 247° |
| 2026-05-07 16:48 | 55.07184 | 12.66229 | 20731 ft | 382 kts | 247° |
| 2026-05-07 16:48 | 55.06475 | 12.63340 | 21149 ft | 384 kts | 247° |
| 2026-05-07 16:49 | 55.05419 | 12.59040 | 21738 ft | 387 kts | 247° |
| 2026-05-07 16:49 | 55.04353 | 12.54707 | 22322 ft | 390 kts | 247° |
| 2026-05-07 16:49 | 55.03277 | 12.50338 | 22900 ft | 393 kts | 247° |
| 2026-05-07 16:49 | 55.02192 | 12.45944 | 23476 ft | 396 kts | 247° |
| 2026-05-07 16:50 | 55.01119 | 12.41557 | 23948 ft | 400 kts | 249° |
| 2026-05-07 16:50 | 55.00307 | 12.36914 | 24386 ft | 403 kts | 257° |
| 2026-05-07 16:50 | 54.99918 | 12.32053 | 24818 ft | 407 kts | 265° |
| 2026-05-07 16:50 | 54.99772 | 12.27102 | 25236 ft | 410 kts | 266° |
| 2026-05-07 16:51 | 54.99644 | 12.22121 | 25632 ft | 414 kts | 266° |
| 2026-05-07 16:51 | 54.99503 | 12.17093 | 26049 ft | 417 kts | 265° |
| 2026-05-07 16:51 | 54.99342 | 12.12032 | 26447 ft | 420 kts | 265° |
| 2026-05-07 16:51 | 54.99167 | 12.06921 | 26830 ft | 423 kts | 265° |
| 2026-05-07 16:52 | 54.98987 | 12.01789 | 27208 ft | 426 kts | 265° |
| 2026-05-07 16:52 | 54.98808 | 11.96620 | 27595 ft | 429 kts | 265° |
| 2026-05-07 16:52 | 54.98627 | 11.91408 | 27961 ft | 432 kts | 265° |
| 2026-05-07 16:52 | 54.98444 | 11.86159 | 28309 ft | 435 kts | 265° |
| 2026-05-07 16:53 | 54.98257 | 11.80875 | 28673 ft | 438 kts | 264° |
| 2026-05-07 16:53 | 54.98068 | 11.75562 | 29015 ft | 441 kts | 264° |
| 2026-05-07 16:53 | 54.97874 | 11.70221 | 29349 ft | 443 kts | 264° |
| 2026-05-07 16:53 | 54.97678 | 11.64853 | 29674 ft | 446 kts | 264° |
| 2026-05-07 16:54 | 54.97480 | 11.59513 | 29976 ft | 449 kts | 264° |
| 2026-05-07 16:54 | 54.97277 | 11.54087 | 30283 ft | 451 kts | 264° |
| 2026-05-07 16:54 | 54.97070 | 11.48628 | 30632 ft | 450 kts | 264° |
| 2026-05-07 16:54 | 54.96864 | 11.43195 | 31114 ft | 447 kts | 264° |
| 2026-05-07 16:55 | 54.96662 | 11.37810 | 31619 ft | 443 kts | 264° |
| 2026-05-07 16:55 | 54.96461 | 11.32460 | 32046 ft | 441 kts | 264° |
| 2026-05-07 16:55 | 54.96259 | 11.27130 | 32419 ft | 440 kts | 264° |
| 2026-05-07 16:55 | 54.96055 | 11.21812 | 32807 ft | 439 kts | 264° |
| 2026-05-07 16:56 | 54.95849 | 11.16521 | 33215 ft | 437 kts | 264° |
| 2026-05-07 16:56 | 54.95645 | 11.11327 | 33649 ft | 435 kts | 264° |
| 2026-05-07 16:56 | 54.95226 | 11.00845 | 34356 ft | 433 kts | 264° |
| 2026-05-07 16:57 | 54.95014 | 10.95622 | 34598 ft | 433 kts | 264° |
| 2026-05-07 16:57 | 54.94799 | 10.90387 | 34877 ft | 433 kts | 264° |
| 2026-05-07 16:57 | 54.94582 | 10.85169 | 35187 ft | 432 kts | 263° |
| 2026-05-07 16:57 | 54.94357 | 10.79963 | 35459 ft | 431 kts | 263° |
| 2026-05-07 16:58 | 54.94124 | 10.74767 | 35713 ft | 431 kts | 263° |
| 2026-05-07 16:58 | 54.93887 | 10.69576 | 35994 ft | 430 kts | 263° |
| 2026-05-07 16:58 | 54.93649 | 10.64384 | 36278 ft | 430 kts | 263° |
| 2026-05-07 16:58 | 54.93410 | 10.59208 | 36521 ft | 430 kts | 263° |
| 2026-05-07 16:59 | 54.93169 | 10.54028 | 36753 ft | 430 kts | 263° |
| 2026-05-07 16:59 | 54.92927 | 10.48849 | 37023 ft | 429 kts | 263° |
| 2026-05-07 16:59 | 54.92683 | 10.43681 | 37287 ft | 429 kts | 263° |
| 2026-05-07 16:59 | 54.92440 | 10.38579 | 37510 ft | 429 kts | 263° |
| 2026-05-07 17:00 | 54.92192 | 10.33414 | 37729 ft | 429 kts | 263° |
| 2026-05-07 17:00 | 54.91942 | 10.28241 | 37979 ft | 429 kts | 263° |
| 2026-05-07 17:00 | 54.91690 | 10.23076 | 38127 ft | 430 kts | 263° |
| 2026-05-07 17:00 | 54.91434 | 10.17874 | 38122 ft | 434 kts | 263° |
| 2026-05-07 17:01 | 54.90903 | 10.07410 | 38126 ft | 432 kts | 261° |
| 2026-05-07 17:01 | 54.90251 | 10.02361 | 38131 ft | 425 kts | 250° |
| 2026-05-07 17:01 | 54.89126 | 9.97643 | 38133 ft | 422 kts | 242° |
| 2026-05-07 17:02 | 54.85724 | 9.89390 | 38145 ft | 421 kts | 229° |
| 2026-05-07 17:02 | 54.81958 | 9.81617 | 38126 ft | 421 kts | 233° |
| 2026-05-07 17:03 | 54.78603 | 9.73307 | 38135 ft | 422 kts | 236° |
| 2026-05-07 17:03 | 54.75255 | 9.64880 | 38131 ft | 426 kts | 235° |
| 2026-05-07 17:04 | 54.71830 | 9.56457 | 38113 ft | 429 kts | 234° |
| 2026-05-07 17:04 | 54.68364 | 9.48028 | 38102 ft | 431 kts | 234° |
| 2026-05-07 17:05 | 54.64883 | 9.39589 | 38102 ft | 431 kts | 234° |
| 2026-05-07 17:05 | 54.61406 | 9.31234 | 38103 ft | 431 kts | 234° |
| 2026-05-07 17:06 | 54.57902 | 9.22871 | 38098 ft | 430 kts | 234° |
| 2026-05-07 17:06 | 54.54401 | 9.14538 | 38106 ft | 428 kts | 234° |
| 2026-05-07 17:07 | 54.50902 | 9.06230 | 38102 ft | 427 kts | 234° |
| 2026-05-07 17:07 | 54.47410 | 8.97965 | 38102 ft | 426 kts | 234° |
| 2026-05-07 17:08 | 54.43922 | 8.89736 | 38101 ft | 426 kts | 234° |
| 2026-05-07 17:08 | 54.40428 | 8.81520 | 38102 ft | 425 kts | 234° |
| 2026-05-07 17:09 | 54.36956 | 8.73380 | 38099 ft | 425 kts | 234° |
| 2026-05-07 17:09 | 54.33453 | 8.65196 | 38103 ft | 426 kts | 234° |
| 2026-05-07 17:10 | 54.29939 | 8.57013 | 38099 ft | 427 kts | 233° |
| 2026-05-07 17:10 | 54.26419 | 8.48837 | 38103 ft | 428 kts | 233° |
| 2026-05-07 17:11 | 54.22854 | 8.40646 | 38098 ft | 429 kts | 231° |
| 2026-05-07 17:11 | 54.18644 | 8.33411 | 38103 ft | 430 kts | 224° |
| 2026-05-07 17:12 | 54.14262 | 8.26446 | 38103 ft | 431 kts | 224° |
| 2026-05-07 17:12 | 54.09925 | 8.19451 | 38104 ft | 432 kts | 224° |
| 2026-05-07 17:13 | 54.05557 | 8.12379 | 38101 ft | 433 kts | 224° |
| 2026-05-07 17:13 | 54.01194 | 8.05312 | 38100 ft | 433 kts | 224° |
| 2026-05-07 17:14 | 53.96818 | 7.98263 | 38096 ft | 434 kts | 224° |
| 2026-05-07 17:14 | 53.92417 | 7.91248 | 38100 ft | 434 kts | 224° |
| 2026-05-07 17:15 | 53.88010 | 7.84249 | 38093 ft | 434 kts | 224° |
| 2026-05-07 17:15 | 53.83625 | 7.77301 | 38089 ft | 434 kts | 224° |
| 2026-05-07 17:16 | 53.79217 | 7.70331 | 38083 ft | 434 kts | 224° |
| 2026-05-07 17:16 | 53.74803 | 7.63373 | 38077 ft | 434 kts | 223° |
| 2026-05-07 17:17 | 53.70388 | 7.56433 | 38081 ft | 433 kts | 223° |
| 2026-05-07 17:17 | 53.65952 | 7.49482 | 38081 ft | 438 kts | 223° |
| 2026-05-07 17:18 | 53.61454 | 7.42454 | 38077 ft | 443 kts | 223° |
| 2026-05-07 17:18 | 53.56922 | 7.35396 | 38072 ft | 445 kts | 223° |
| 2026-05-07 17:19 | 53.52367 | 7.28323 | 38106 ft | 445 kts | 223° |
| 2026-05-07 17:19 | 53.47804 | 7.21259 | 38099 ft | 445 kts | 223° |
| 2026-05-07 17:20 | 53.43249 | 7.14229 | 38094 ft | 444 kts | 223° |
| 2026-05-07 17:20 | 53.38723 | 7.07261 | 38099 ft | 443 kts | 223° |
| 2026-05-07 17:21 | 53.34179 | 7.00287 | 38096 ft | 443 kts | 223° |
| 2026-05-07 17:21 | 53.30019 | 6.92713 | 38089 ft | 441 kts | 229° |
| 2026-05-07 17:22 | 53.26002 | 6.84948 | 38074 ft | 441 kts | 229° |
| 2026-05-07 17:22 | 53.21957 | 6.77223 | 38076 ft | 441 kts | 229° |
| 2026-05-07 17:23 | 53.17904 | 6.69544 | 38078 ft | 441 kts | 229° |
| 2026-05-07 17:23 | 53.13874 | 6.61843 | 38073 ft | 441 kts | 230° |
| 2026-05-07 17:24 | 53.09907 | 6.54064 | 38075 ft | 441 kts | 230° |
| 2026-05-07 17:24 | 53.05939 | 6.46291 | 38078 ft | 441 kts | 230° |
| 2026-05-07 17:25 | 53.01948 | 6.38524 | 38075 ft | 441 kts | 230° |
| 2026-05-07 17:25 | 52.97979 | 6.30835 | 38073 ft | 441 kts | 230° |
| 2026-05-07 17:26 | 52.93976 | 6.23106 | 38079 ft | 441 kts | 229° |
| 2026-05-07 17:26 | 52.89968 | 6.15392 | 38077 ft | 442 kts | 229° |
| 2026-05-07 17:27 | 52.85952 | 6.07684 | 38075 ft | 442 kts | 229° |
| 2026-05-07 17:27 | 52.81936 | 6.00000 | 38071 ft | 442 kts | 229° |
| 2026-05-07 17:28 | 52.77909 | 5.92317 | 38073 ft | 442 kts | 229° |
| 2026-05-07 17:28 | 52.73880 | 5.84653 | 38075 ft | 442 kts | 229° |
| 2026-05-07 17:29 | 52.69833 | 5.76994 | 38074 ft | 442 kts | 229° |
| 2026-05-07 17:29 | 52.65808 | 5.69413 | 38074 ft | 442 kts | 229° |
| 2026-05-07 17:30 | 52.61750 | 5.61788 | 38076 ft | 442 kts | 229° |
| 2026-05-07 17:30 | 52.57695 | 5.54187 | 38080 ft | 442 kts | 229° |
| 2026-05-07 17:31 | 52.53630 | 5.46590 | 38075 ft | 442 kts | 229° |
| 2026-05-07 17:31 | 52.49559 | 5.39001 | 38076 ft | 443 kts | 229° |
| 2026-05-07 17:32 | 52.46168 | 5.32700 | 38078 ft | 443 kts | 229° |
| 2026-05-07 17:32 | 52.42095 | 5.25124 | 38071 ft | 443 kts | 229° |
| 2026-05-07 17:33 | 52.38018 | 5.17556 | 38072 ft | 443 kts | 229° |
| 2026-05-07 17:33 | 52.34152 | 5.09722 | 38071 ft | 443 kts | 238° |
| 2026-05-07 17:34 | 52.31607 | 5.00579 | 38087 ft | 443 kts | 251° |
| 2026-05-07 17:34 | 52.29714 | 4.91063 | 38026 ft | 443 kts | 251° |
| 2026-05-07 17:35 | 52.27783 | 4.81504 | 38070 ft | 443 kts | 251° |
| 2026-05-07 17:35 | 52.25801 | 4.71949 | 38084 ft | 445 kts | 250° |
| 2026-05-07 17:36 | 52.23798 | 4.62370 | 38087 ft | 446 kts | 250° |
| 2026-05-07 17:36 | 52.21782 | 4.52765 | 38065 ft | 448 kts | 250° |
| 2026-05-07 17:37 | 52.19758 | 4.43155 | 38083 ft | 448 kts | 250° |
| 2026-05-07 17:37 | 52.17739 | 4.33605 | 38070 ft | 448 kts | 250° |
| 2026-05-07 17:38 | 52.15699 | 4.24004 | 38086 ft | 448 kts | 250° |
| 2026-05-07 17:38 | 52.13652 | 4.14412 | 38075 ft | 448 kts | 250° |
| 2026-05-07 17:39 | 52.11600 | 4.04842 | 38078 ft | 447 kts | 250° |
| 2026-05-07 17:39 | 52.09544 | 3.95297 | 38076 ft | 447 kts | 250° |
| 2026-05-07 17:40 | 52.07481 | 3.85758 | 38084 ft | 447 kts | 250° |
| 2026-05-07 17:40 | 52.05415 | 3.76239 | 38080 ft | 446 kts | 250° |
| 2026-05-07 17:41 | 52.03349 | 3.66738 | 38086 ft | 446 kts | 250° |
| 2026-05-07 17:41 | 52.01288 | 3.57294 | 38092 ft | 445 kts | 250° |
| 2026-05-07 17:42 | 51.99368 | 3.47739 | 38080 ft | 446 kts | 258° |
| 2026-05-07 17:42 | 51.98449 | 3.37796 | 38086 ft | 446 kts | 261° |
| 2026-05-07 17:43 | 51.97591 | 3.27820 | 38097 ft | 446 kts | 261° |
| 2026-05-07 17:43 | 51.96666 | 3.17858 | 38094 ft | 446 kts | 260° |
| 2026-05-07 17:44 | 51.95906 | 3.07946 | 38091 ft | 446 kts | 263° |
| 2026-05-07 17:44 | 51.95295 | 2.97865 | 38083 ft | 446 kts | 263° |
| 2026-05-07 17:45 | 51.94655 | 2.87927 | 38084 ft | 446 kts | 263° |
| 2026-05-07 17:45 | 51.93976 | 2.77937 | 38087 ft | 446 kts | 262° |
| 2026-05-07 17:46 | 51.93287 | 2.67952 | 38073 ft | 446 kts | 262° |
| 2026-05-07 17:46 | 51.92598 | 2.57968 | 38082 ft | 446 kts | 262° |
| 2026-05-07 17:47 | 51.91908 | 2.47978 | 38077 ft | 446 kts | 262° |
| 2026-05-07 17:47 | 51.91210 | 2.37990 | 38079 ft | 446 kts | 262° |
| 2026-05-07 17:48 | 51.90622 | 2.27980 | 38078 ft | 446 kts | 266° |
| 2026-05-07 17:48 | 51.90432 | 2.17942 | 38085 ft | 446 kts | 267° |
| 2026-05-07 17:49 | 51.90259 | 2.07947 | 38081 ft | 446 kts | 267° |
| 2026-05-07 17:49 | 51.90030 | 1.97903 | 38083 ft | 446 kts | 266° |
| 2026-05-07 17:50 | 51.89581 | 1.87902 | 38064 ft | 445 kts | 258° |
| 2026-05-07 17:50 | 51.87823 | 1.78335 | 38079 ft | 443 kts | 250° |
| 2026-05-07 17:51 | 51.85824 | 1.68883 | 38077 ft | 443 kts | 250° |
| 2026-05-07 17:51 | 51.83852 | 1.59426 | 38077 ft | 443 kts | 251° |
| 2026-05-07 17:52 | 51.81901 | 1.49969 | 38076 ft | 443 kts | 251° |
| 2026-05-07 17:52 | 51.80920 | 1.45208 | 37614 ft | 449 kts | 251° |
| 2026-05-07 17:52 | 51.79949 | 1.40508 | 37071 ft | 445 kts | 251° |
| 2026-05-07 17:53 | 51.78969 | 1.35779 | 36457 ft | 442 kts | 251° |
| 2026-05-07 17:53 | 51.77991 | 1.31071 | 35779 ft | 441 kts | 251° |
| 2026-05-07 17:53 | 51.77013 | 1.26372 | 35074 ft | 441 kts | 251° |
| 2026-05-07 17:53 | 51.76033 | 1.21682 | 34359 ft | 441 kts | 251° |
| 2026-05-07 17:54 | 51.75053 | 1.16998 | 33568 ft | 441 kts | 251° |
| 2026-05-07 17:54 | 51.74075 | 1.12333 | 33020 ft | 434 kts | 251° |
| 2026-05-07 17:54 | 51.73110 | 1.07739 | 32484 ft | 429 kts | 251° |
| 2026-05-07 17:54 | 51.72156 | 1.03206 | 31976 ft | 423 kts | 251° |
| 2026-05-07 17:55 | 51.71213 | 0.98742 | 31485 ft | 418 kts | 251° |
| 2026-05-07 17:55 | 51.70382 | 0.94285 | 30989 ft | 413 kts | 257° |
| 2026-05-07 17:55 | 51.69964 | 0.89737 | 30577 ft | 407 kts | 263° |
| 2026-05-07 17:55 | 51.69683 | 0.85221 | 30080 ft | 403 kts | 264° |
| 2026-05-07 17:56 | 51.69408 | 0.80743 | 29534 ft | 399 kts | 263° |
| 2026-05-07 17:56 | 51.69113 | 0.76331 | 29045 ft | 393 kts | 263° |
| 2026-05-07 17:56 | 51.68790 | 0.71983 | 28555 ft | 388 kts | 262° |
| 2026-05-07 17:56 | 51.68461 | 0.67695 | 28074 ft | 384 kts | 262° |
| 2026-05-07 17:57 | 51.68151 | 0.63456 | 27587 ft | 380 kts | 263° |
| 2026-05-07 17:57 | 51.67954 | 0.60666 | 27274 ft | 377 kts | 263° |
| 2026-05-07 17:57 | 51.67563 | 0.55083 | 26629 ft | 373 kts | 263° |
| 2026-05-07 17:57 | 51.67272 | 0.51005 | 26168 ft | 369 kts | 263° |
| 2026-05-07 17:58 | 51.66979 | 0.46907 | 25696 ft | 367 kts | 263° |
| 2026-05-07 17:58 | 51.66686 | 0.42843 | 25233 ft | 364 kts | 263° |
| 2026-05-07 17:58 | 51.66385 | 0.38790 | 24773 ft | 362 kts | 262° |
| 2026-05-07 17:58 | 51.66083 | 0.34768 | 24319 ft | 360 kts | 262° |
| 2026-05-07 17:59 | 51.65783 | 0.30775 | 23870 ft | 358 kts | 262° |
| 2026-05-07 17:59 | 51.65483 | 0.26802 | 23377 ft | 357 kts | 262° |
| 2026-05-07 17:59 | 51.65183 | 0.22848 | 22864 ft | 355 kts | 262° |
| 2026-05-07 17:59 | 51.64946 | 0.18910 | 22398 ft | 352 kts | 269° |
| 2026-05-07 18:00 | 51.65272 | 0.15021 | 22120 ft | 351 kts | 283° |
| 2026-05-07 18:00 | 51.66110 | 0.11330 | 22096 ft | 363 kts | 296° |
| 2026-05-07 18:00 | 51.67451 | 0.07800 | 22081 ft | 372 kts | 301° |
| 2026-05-07 18:00 | 51.68901 | 0.04319 | 22074 ft | 375 kts | 302° |
| 2026-05-07 18:01 | 51.70354 | 0.00837 | 22040 ft | 374 kts | 302° |
| 2026-05-07 18:01 | 51.71785 | -0.02664 | 22041 ft | 373 kts | 301° |
| 2026-05-07 18:01 | 51.73198 | -0.06176 | 22041 ft | 373 kts | 301° |
| 2026-05-07 18:01 | 51.74566 | -0.09744 | 22045 ft | 372 kts | 296° |
| 2026-05-07 18:02 | 51.76304 | -0.17553 | 22051 ft | 370 kts | 284° |
| 2026-05-07 18:02 | 51.76984 | -0.21556 | 22043 ft | 370 kts | 283° |
| 2026-05-07 18:02 | 51.77669 | -0.25565 | 22050 ft | 370 kts | 284° |
| 2026-05-07 18:03 | 51.78369 | -0.29571 | 22037 ft | 370 kts | 284° |
| 2026-05-07 18:03 | 51.79075 | -0.33568 | 22046 ft | 370 kts | 284° |
| 2026-05-07 18:03 | 51.79788 | -0.37562 | 22050 ft | 371 kts | 286° |
| 2026-05-07 18:03 | 51.80845 | -0.41336 | 21901 ft | 366 kts | 300° |
| 2026-05-07 18:04 | 51.82422 | -0.44574 | 21434 ft | 368 kts | 312° |
| 2026-05-07 18:04 | 51.84377 | -0.47254 | 20819 ft | 371 kts | 324° |
| 2026-05-07 18:04 | 51.86622 | -0.49252 | 20221 ft | 374 kts | 332° |
| 2026-05-07 18:04 | 51.88966 | -0.51061 | 19736 ft | 372 kts | 332° |
| 2026-05-07 18:05 | 51.91285 | -0.52867 | 19267 ft | 369 kts | 332° |
| 2026-05-07 18:05 | 51.93585 | -0.54703 | 18802 ft | 367 kts | 331° |
| 2026-05-07 18:05 | 51.95825 | -0.56637 | 18340 ft | 364 kts | 328° |
| 2026-05-07 18:05 | 51.97994 | -0.58733 | 17818 ft | 362 kts | 326° |
| 2026-05-07 18:06 | 52.00130 | -0.60869 | 17288 ft | 360 kts | 326° |
| 2026-05-07 18:06 | 52.02257 | -0.63004 | 16786 ft | 358 kts | 326° |
| 2026-05-07 18:06 | 52.04373 | -0.65116 | 16275 ft | 356 kts | 327° |
| 2026-05-07 18:06 | 52.06477 | -0.67202 | 15806 ft | 354 kts | 327° |
| 2026-05-07 18:07 | 52.08574 | -0.69273 | 15456 ft | 350 kts | 327° |
| 2026-05-07 18:07 | 52.10644 | -0.71313 | 15196 ft | 346 kts | 327° |
| 2026-05-07 18:07 | 52.12698 | -0.73337 | 14962 ft | 344 kts | 327° |
| 2026-05-07 18:07 | 52.14761 | -0.75373 | 14747 ft | 349 kts | 327° |
| 2026-05-07 18:08 | 52.16875 | -0.77382 | 14524 ft | 353 kts | 329° |
| 2026-05-07 18:08 | 52.19032 | -0.79280 | 14294 ft | 351 kts | 330° |
| 2026-05-07 18:08 | 52.21177 | -0.81138 | 14030 ft | 348 kts | 330° |
| 2026-05-07 18:08 | 52.23306 | -0.82973 | 13602 ft | 345 kts | 330° |
| 2026-05-07 18:09 | 52.25434 | -0.84805 | 13083 ft | 344 kts | 330° |
| 2026-05-07 18:09 | 52.27523 | -0.86602 | 12946 ft | 333 kts | 330° |
| 2026-05-07 18:09 | 52.29536 | -0.88329 | 12859 ft | 320 kts | 330° |
| 2026-05-07 18:09 | 52.31475 | -0.89989 | 12757 ft | 309 kts | 330° |
| 2026-05-07 18:10 | 52.33342 | -0.91584 | 12524 ft | 304 kts | 330° |
| 2026-05-07 18:10 | 52.35213 | -0.93183 | 12179 ft | 303 kts | 330° |
| 2026-05-07 18:10 | 52.37076 | -0.94773 | 11846 ft | 302 kts | 330° |
| 2026-05-07 18:10 | 52.38941 | -0.96365 | 11471 ft | 301 kts | 330° |
| 2026-05-07 18:11 | 52.40799 | -0.97951 | 11100 ft | 301 kts | 330° |
| 2026-05-07 18:11 | 52.42025 | -0.98998 | 10849 ft | 301 kts | 330° |
| 2026-05-07 18:11 | 52.44482 | -1.01175 | 10397 ft | 298 kts | 324° |
| 2026-05-07 18:11 | 52.46158 | -1.03130 | 10077 ft | 295 kts | 321° |
| 2026-05-07 18:12 | 52.47788 | -1.05142 | 9747 ft | 292 kts | 321° |
| 2026-05-07 18:12 | 52.49407 | -1.07159 | 9392 ft | 290 kts | 321° |
| 2026-05-07 18:12 | 52.51006 | -1.09161 | 9043 ft | 289 kts | 320° |
| 2026-05-07 18:12 | 52.52595 | -1.11160 | 8700 ft | 287 kts | 320° |
| 2026-05-07 18:13 | 52.54176 | -1.13155 | 8355 ft | 285 kts | 321° |
| 2026-05-07 18:13 | 52.55744 | -1.15139 | 8016 ft | 284 kts | 321° |
| 2026-05-07 18:13 | 52.57301 | -1.17117 | 7680 ft | 282 kts | 320° |
| 2026-05-07 18:13 | 52.58824 | -1.19060 | 7353 ft | 280 kts | 320° |
| 2026-05-07 18:14 | 52.60359 | -1.21021 | 7026 ft | 279 kts | 320° |
| 2026-05-07 18:14 | 52.61888 | -1.22977 | 6699 ft | 278 kts | 320° |
| 2026-05-07 18:14 | 52.63406 | -1.24924 | 6373 ft | 276 kts | 320° |
| 2026-05-07 18:14 | 52.64917 | -1.26864 | 6033 ft | 274 kts | 320° |
| 2026-05-07 18:15 | 52.66418 | -1.28793 | 5699 ft | 273 kts | 320° |
| 2026-05-07 18:15 | 52.67934 | -1.30749 | 5353 ft | 273 kts | 320° |
| 2026-05-07 18:15 | 52.69405 | -1.32658 | 5027 ft | 272 kts | 320° |
| 2026-05-07 18:15 | 52.70891 | -1.34593 | 4692 ft | 272 kts | 320° |
| 2026-05-07 18:16 | 52.72371 | -1.36529 | 4352 ft | 271 kts | 320° |
| 2026-05-07 18:16 | 52.73848 | -1.38467 | 4011 ft | 271 kts | 320° |
| 2026-05-07 18:16 | 52.75321 | -1.40403 | 3710 ft | 270 kts | 320° |
| 2026-05-07 18:16 | 52.76790 | -1.42332 | 3375 ft | 270 kts | 320° |
| 2026-05-07 18:17 | 52.77765 | -1.43616 | 3144 ft | 269 kts | 320° |
| 2026-05-07 18:17 | 52.79209 | -1.45526 | 3014 ft | 262 kts | 320° |
| 2026-05-07 18:17 | 52.80612 | -1.47386 | 2902 ft | 256 kts | 320° |
| 2026-05-07 18:17 | 52.81656 | -1.49648 | 2769 ft | 245 kts | 286° |
| 2026-05-07 18:18 | 52.81679 | -1.52337 | 2648 ft | 231 kts | 250° |
| 2026-05-07 18:18 | 52.81119 | -1.54804 | 2582 ft | 228 kts | 246° |
| 2026-05-07 18:18 | 52.80546 | -1.57221 | 2531 ft | 226 kts | 246° |
| 2026-05-07 18:18 | 52.79940 | -1.59604 | 2496 ft | 222 kts | 236° |
| 2026-05-07 18:19 | 52.78842 | -1.61316 | 2525 ft | 218 kts | 215° |
| 2026-05-07 18:19 | 52.77639 | -1.62793 | 2496 ft | 209 kts | 215° |
| 2026-05-07 18:19 | 52.76529 | -1.64174 | 2483 ft | 191 kts | 215° |
| 2026-05-07 18:19 | 52.75510 | -1.65448 | 2468 ft | 180 kts | 215° |
| 2026-05-07 18:20 | 52.74514 | -1.66702 | 2470 ft | 179 kts | 215° |
| 2026-05-07 18:20 | 52.73527 | -1.67944 | 2480 ft | 179 kts | 215° |
| 2026-05-07 18:20 | 52.72539 | -1.69191 | 2486 ft | 179 kts | 215° |
| 2026-05-07 18:20 | 52.71566 | -1.70481 | 2483 ft | 180 kts | 218° |
| 2026-05-07 18:21 | 52.70610 | -1.71809 | 2486 ft | 180 kts | 218° |
| 2026-05-07 18:21 | 52.69650 | -1.73152 | 2489 ft | 180 kts | 218° |
| 2026-05-07 18:21 | 52.68692 | -1.74488 | 2480 ft | 180 kts | 218° |
| 2026-05-07 18:21 | 52.67749 | -1.75808 | 2496 ft | 180 kts | 218° |
| 2026-05-07 18:22 | 52.66795 | -1.77129 | 2493 ft | 178 kts | 218° |
| 2026-05-07 18:22 | 52.66151 | -1.78015 | 2493 ft | 179 kts | 218° |
| 2026-05-07 18:22 | 52.64883 | -1.79760 | 2499 ft | 178 kts | 218° |
| 2026-05-07 18:22 | 52.63931 | -1.81069 | 2490 ft | 179 kts | 218° |
| 2026-05-07 18:23 | 52.62979 | -1.82378 | 2496 ft | 178 kts | 218° |
| 2026-05-07 18:23 | 52.62029 | -1.83684 | 2492 ft | 177 kts | 218° |
| 2026-05-07 18:23 | 52.61084 | -1.84981 | 2501 ft | 178 kts | 218° |
| 2026-05-07 18:23 | 52.60140 | -1.86278 | 2492 ft | 173 kts | 218° |
| 2026-05-07 18:24 | 52.59250 | -1.87485 | 2482 ft | 162 kts | 214° |
| 2026-05-07 18:24 | 52.58233 | -1.87884 | 2494 ft | 152 kts | 165° |
| 2026-05-07 18:24 | 52.57217 | -1.87255 | 2508 ft | 157 kts | 160° |
| 2026-05-07 18:24 | 52.56238 | -1.86507 | 2492 ft | 154 kts | 154° |
| 2026-05-07 18:25 | 52.55303 | -1.85704 | 2456 ft | 150 kts | 153° |
| 2026-05-07 18:25 | 52.54404 | -1.84818 | 2284 ft | 151 kts | 149° |
| 2026-05-07 18:25 | 52.53527 | -1.83866 | 2089 ft | 151 kts | 148° |
| 2026-05-07 18:25 | 52.52658 | -1.82904 | 1791 ft | 151 kts | 148° |
| 2026-05-07 18:26 | 52.51822 | -1.81940 | 1663 ft | 138 kts | 144° |
| 2026-05-07 18:26 | 52.51088 | -1.81045 | 1729 ft | 123 kts | 150° |
| 2026-05-07 18:26 | 52.50345 | -1.80312 | 1546 ft | 126 kts | 150° |
| 2026-05-07 18:26 | 52.49597 | -1.79496 | 1391 ft | 133 kts | 146° |
| 2026-05-07 18:27 | 52.48845 | -1.78628 | 1214 ft | 137 kts | 147° |
| 2026-05-07 18:27 | 52.48033 | -1.77762 | 1011 ft | 140 kts | 147° |
| 2026-05-07 18:27 | 52.47212 | -1.76837 | 700 ft | 142 kts | 146° |
| 2026-05-07 18:27 | 52.46432 | -1.75950 | 383 ft | 130 kts | 148° |
| 2026-05-07 18:28 | 52.45751 | -1.75205 | 321 ft | 101 kts | 146° |
| 2026-05-07 18:28 | 52.45295 | -1.74699 | 322 ft | 58 kts | 146° |
| 2026-05-07 18:28 | 52.45086 | -1.74465 | 327 ft | 14 kts | 146° |
| 2026-05-07 18:28 | 52.44996 | -1.74366 | 328 ft | 20 kts | 146° |
| 2026-05-07 18:29 | 52.44959 | -1.74177 | 329 ft | 19 kts | 76° |
| 2026-05-07 18:29 | 52.44991 | -1.73972 | 329 ft | 18 kts | 74° |
| 2026-05-07 18:29 | 52.45055 | -1.73795 | 332 ft | 18 kts | 44° |
| 2026-05-07 18:29 | 52.45162 | -1.73848 | 329 ft | 17 kts | 324° |
| 2026-05-07 18:30 | 52.45262 | -1.73952 | 327 ft | 17 kts | 327° |
| 2026-05-07 18:30 | 52.45352 | -1.73884 | 329 ft | 12 kts | 50° |
| 2026-05-07 18:30 | 52.45409 | -1.73884 | 328 ft | 0 kts | 325° |